General Rondeau, Argentina
Current Conditions -  °F | °C
As of 3:00 AM on Monday 22 Dec 2014 (Local Time) from SAZN Reporting Station
Clear Clear  
Wind Chill: 55°   Ceiling: Unl
Heat Index: 55°   Visibility: 6mi
Dew Point: 28°   Wind: 9mph
Humidity: 36%   Direction: 180°S
Pressure: 30.09"   Gusts: NA
Location:  38.2°S, 63.19°W
Report Text: SAZN 220600Z 18008KT CAVOK 13/M02 Q1019
Loading
Personal Weather Stations






























Interactive Weather Map New forecast layout! Learn more

10-Day Weather Forecast

Advertisements
Track Severe Weather on mobile